New Orleans Weather Page

Compiled by Joey Kelly

 

Want a detailed forecast?
Or want to check out the National Hurricane Center?
Or take a look at Jay C. Theriot's excellent hurricane tracking page instead?

 

NOAA Weather: Moisant International Airport

Data is taken from the Aviation Weather Service at NOAA.

This is the current weather at New Orleans International Airport
in New Orleans, Louisiana, United States:

Temp: 80.6 F
Wind: 4.6 MPH
Wind direction: Northwest at 300°
Dewpoint: 73.4 F
Pressure: 29.93 inches of Mercury
Visibility: 10 Statute Miles
Sky: Broken at 1800ft Broken at 6000ft
Weather:

The raw METAR data is
KMSY 160253Z 30004KT 10SM BKN018 BKN060 27/23 A2993 RMK AO2 LTG DSNT N SLP136


 

Southeast Louisiana Radar
Southeast Louisiana Radar

 

Gulf and Caribbean Radar
Gulf and Caribbean Radar

 

USA Radar
USA Radar

 

7-Day Forecast (WWL)
7-Day Forecast (WWL)

 

Southeast Louisiana Temperatures
Southeast Louisiana Temperatures

 

Southeastern U.S. Temperatures
Southeastern U.S. Temperatures

 

Infrared Tropical Satellite
Infrared Tropical Satellite

 

Atlantic Infrared Tropical Satellite
Atlantic Infrared Tropical Satellite

 

NHC 2-Day Weather Outlook
NHC 2-Day Weather Outlook

 

NHC Atlantic Tropical Cyclone Avtivity
NHC Atlantic Tropical Cyclone Avtivity

 

America and Atlantic Wind Patterns (interactive widget)

 


Other Weather Links:

National Hurricane Center
Louisiana Hurricane Season Notes

 

 

KellyNet Computer Services